sensor_id;sensor_type;location;lat;lon;timestamp;P1;durP1;ratioP1;P2;durP2;ratioP2
5805;SDS011;2929;50.810;8.342;2023-05-10T00:00:08;0.50;;;0.50;;
5805;SDS011;2929;50.810;8.342;2023-05-10T00:02:40;0.40;;;0.40;;
5805;SDS011;2929;50.810;8.342;2023-05-10T00:05:07;1.93;;;0.50;;
5805;SDS011;2929;50.810;8.342;2023-05-10T00:07:34;1.10;;;0.50;;
5805;SDS011;2929;50.810;8.342;2023-05-10T00:10:01;0.50;;;0.50;;
5805;SDS011;2929;50.810;8.342;2023-05-10T00:12:28;0.53;;;0.50;;
5805;SDS011;2929;50.810;8.342;2023-05-10T00:14:55;5.57;;;0.50;;
5805;SDS011;2929;50.810;8.342;2023-05-10T00:17:22;0.70;;;0.50;;
5805;SDS011;2929;50.810;8.342;2023-05-10T00:19:50;2.07;;;0.63;;
5805;SDS011;2929;50.810;8.342;2023-05-10T00:22:17;0.50;;;0.50;;
5805;SDS011;2929;50.810;8.342;2023-05-10T00:24:44;0.47;;;0.43;;
5805;SDS011;2929;50.810;8.342;2023-05-10T00:27:11;2.10;;;0.50;;
5805;SDS011;2929;50.810;8.342;2023-05-10T00:29:38;0.50;;;0.50;;
5805;SDS011;2929;50.810;8.342;2023-05-10T00:32:05;1.60;;;0.60;;
5805;SDS011;2929;50.810;8.342;2023-05-10T00:34:32;0.50;;;0.50;;
5805;SDS011;2929;50.810;8.342;2023-05-10T00:37:01;0.50;;;0.50;;
5805;SDS011;2929;50.810;8.342;2023-05-10T00:39:28;1.60;;;0.50;;
5805;SDS011;2929;50.810;8.342;2023-05-10T00:41:55;2.50;;;0.53;;
5805;SDS011;2929;50.810;8.342;2023-05-10T00:44:22;0.50;;;0.50;;
5805;SDS011;2929;50.810;8.342;2023-05-10T00:46:49;2.70;;;0.60;;
5805;SDS011;2929;50.810;8.342;2023-05-10T00:49:16;0.50;;;0.50;;
5805;SDS011;2929;50.810;8.342;2023-05-10T00:51:44;0.60;;;0.60;;
5805;SDS011;2929;50.810;8.342;2023-05-10T00:54:13;0.60;;;0.60;;
5805;SDS011;2929;50.810;8.342;2023-05-10T00:56:41;1.63;;;0.50;;
5805;SDS011;2929;50.810;8.342;2023-05-10T00:59:13;3.03;;;0.63;;
5805;SDS011;2929;50.810;8.342;2023-05-10T01:01:41;0.70;;;0.67;;
5805;SDS011;2929;50.810;8.342;2023-05-10T01:30:50;0.60;;;0.60;;
5805;SDS011;2929;50.810;8.342;2023-05-10T01:33:42;0.70;;;0.60;;
5805;SDS011;2929;50.810;8.342;2023-05-10T01:36:17;3.03;;;1.00;;
5805;SDS011;2929;50.810;8.342;2023-05-10T01:38:51;0.73;;;0.73;;
5805;SDS011;2929;50.810;8.342;2023-05-10T01:41:24;3.90;;;0.70;;
5805;SDS011;2929;50.810;8.342;2023-05-10T01:43:55;1.90;;;0.70;;
5805;SDS011;2929;50.810;8.342;2023-05-10T01:46:35;0.80;;;0.70;;
5805;SDS011;2929;50.810;8.342;2023-05-10T01:49:07;1.57;;;0.90;;
5805;SDS011;2929;50.810;8.342;2023-05-10T01:51:36;0.80;;;0.80;;
5805;SDS011;2929;50.810;8.342;2023-05-10T01:54:06;1.03;;;0.93;;
5805;SDS011;2929;50.810;8.342;2023-05-10T01:56:36;0.80;;;0.80;;
5805;SDS011;2929;50.810;8.342;2023-05-10T01:59:08;0.97;;;0.97;;
5805;SDS011;2929;50.810;8.342;2023-05-10T02:01:38;0.90;;;0.80;;
5805;SDS011;2929;50.810;8.342;2023-05-10T02:04:07;1.90;;;1.10;;
5805;SDS011;2929;50.810;8.342;2023-05-10T02:06:35;1.17;;;1.00;;
5805;SDS011;2929;50.810;8.342;2023-05-10T02:09:04;0.80;;;0.80;;
5805;SDS011;2929;50.810;8.342;2023-05-10T02:11:33;1.00;;;1.00;;
5805;SDS011;2929;50.810;8.342;2023-05-10T02:14:00;1.67;;;1.57;;
5805;SDS011;2929;50.810;8.342;2023-05-10T02:16:28;1.20;;;1.10;;
5805;SDS011;2929;50.810;8.342;2023-05-10T02:18:57;1.50;;;0.80;;
5805;SDS011;2929;50.810;8.342;2023-05-10T02:21:26;0.80;;;0.80;;
5805;SDS011;2929;50.810;8.342;2023-05-10T02:23:56;2.40;;;0.80;;
5805;SDS011;2929;50.810;8.342;2023-05-10T02:26:24;0.80;;;0.80;;
5805;SDS011;2929;50.810;8.342;2023-05-10T02:28:53;0.80;;;0.60;;
5805;SDS011;2929;50.810;8.342;2023-05-10T02:31:21;1.33;;;0.60;;
5805;SDS011;2929;50.810;8.342;2023-05-10T02:33:49;0.70;;;0.70;;
5805;SDS011;2929;50.810;8.342;2023-05-10T02:36:17;0.60;;;0.60;;
5805;SDS011;2929;50.810;8.342;2023-05-10T02:38:48;1.73;;;0.73;;
5805;SDS011;2929;50.810;8.342;2023-05-10T02:41:16;0.77;;;0.77;;
5805;SDS011;2929;50.810;8.342;2023-05-10T02:43:47;9.07;;;0.93;;
5805;SDS011;2929;50.810;8.342;2023-05-10T02:46:17;1.37;;;0.80;;
5805;SDS011;2929;50.810;8.342;2023-05-10T02:48:47;1.13;;;1.10;;
5805;SDS011;2929;50.810;8.342;2023-05-10T02:51:14;1.07;;;0.70;;
5805;SDS011;2929;50.810;8.342;2023-05-10T02:53:44;1.37;;;0.73;;
5805;SDS011;2929;50.810;8.342;2023-05-10T02:56:15;2.50;;;0.90;;
5805;SDS011;2929;50.810;8.342;2023-05-10T02:58:48;0.90;;;0.90;;
5805;SDS011;2929;50.810;8.342;2023-05-10T03:01:15;1.37;;;1.27;;
5805;SDS011;2929;50.810;8.342;2023-05-10T03:03:43;1.20;;;1.10;;
5805;SDS011;2929;50.810;8.342;2023-05-10T03:06:10;1.73;;;1.00;;
5805;SDS011;2929;50.810;8.342;2023-05-10T03:08:37;0.83;;;0.83;;
5805;SDS011;2929;50.810;8.342;2023-05-10T03:11:14;1.27;;;1.17;;
5805;SDS011;2929;50.810;8.342;2023-05-10T03:14:04;1.40;;;1.30;;
5805;SDS011;2929;50.810;8.342;2023-05-10T03:16:41;1.57;;;1.13;;
5805;SDS011;2929;50.810;8.342;2023-05-10T03:19:14;1.40;;;1.30;;
5805;SDS011;2929;50.810;8.342;2023-05-10T03:21:49;1.30;;;1.20;;
5805;SDS011;2929;50.810;8.342;2023-05-10T03:24:19;1.00;;;1.00;;
5805;SDS011;2929;50.810;8.342;2023-05-10T03:26:49;1.00;;;1.00;;
5805;SDS011;2929;50.810;8.342;2023-05-10T03:29:20;2.27;;;1.60;;
5805;SDS011;2929;50.810;8.342;2023-05-10T03:31:49;1.20;;;1.10;;
5805;SDS011;2929;50.810;8.342;2023-05-10T03:34:16;2.20;;;1.40;;
5805;SDS011;2929;50.810;8.342;2023-05-10T03:36:43;2.73;;;1.90;;
5805;SDS011;2929;50.810;8.342;2023-05-10T03:39:10;5.30;;;3.07;;
5805;SDS011;2929;50.810;8.342;2023-05-10T03:41:37;3.03;;;2.20;;
5805;SDS011;2929;50.810;8.342;2023-05-10T03:44:05;7.40;;;2.40;;
5805;SDS011;2929;50.810;8.342;2023-05-10T03:46:32;2.40;;;2.20;;
5805;SDS011;2929;50.810;8.342;2023-05-10T03:48:59;3.17;;;2.20;;
5805;SDS011;2929;50.810;8.342;2023-05-10T03:51:26;5.73;;;2.70;;
5805;SDS011;2929;50.810;8.342;2023-05-10T03:53:53;5.90;;;3.90;;
5805;SDS011;2929;50.810;8.342;2023-05-10T03:56:21;4.70;;;3.27;;
5805;SDS011;2929;50.810;8.342;2023-05-10T03:58:48;3.23;;;2.93;;
5805;SDS011;2929;50.810;8.342;2023-05-10T04:01:16;6.10;;;3.73;;
5805;SDS011;2929;50.810;8.342;2023-05-10T04:03:43;4.40;;;3.63;;
5805;SDS011;2929;50.810;8.342;2023-05-10T04:06:11;12.80;;;4.30;;
5805;SDS011;2929;50.810;8.342;2023-05-10T04:08:38;9.10;;;3.57;;
5805;SDS011;2929;50.810;8.342;2023-05-10T04:11:05;5.33;;;3.93;;
5805;SDS011;2929;50.810;8.342;2023-05-10T04:13:33;5.07;;;4.00;;
5805;SDS011;2929;50.810;8.342;2023-05-10T04:16:00;4.47;;;4.07;;
5805;SDS011;2929;50.810;8.342;2023-05-10T04:18:28;5.40;;;4.80;;
5805;SDS011;2929;50.810;8.342;2023-05-10T04:20:56;5.80;;;4.50;;
5805;SDS011;2929;50.810;8.342;2023-05-10T04:23:23;5.77;;;4.37;;
5805;SDS011;2929;50.810;8.342;2023-05-10T04:25:50;5.80;;;4.80;;
5805;SDS011;2929;50.810;8.342;2023-05-10T04:28:17;6.23;;;4.90;;
5805;SDS011;2929;50.810;8.342;2023-05-10T04:30:44;8.93;;;4.83;;
5805;SDS011;2929;50.810;8.342;2023-05-10T04:33:11;7.43;;;6.00;;
5805;SDS011;2929;50.810;8.342;2023-05-10T04:35:40;6.70;;;5.60;;
5805;SDS011;2929;50.810;8.342;2023-05-10T04:38:07;8.63;;;5.73;;
5805;SDS011;2929;50.810;8.342;2023-05-10T04:40:34;7.30;;;5.93;;
5805;SDS011;2929;50.810;8.342;2023-05-10T04:43:01;9.73;;;6.70;;
5805;SDS011;2929;50.810;8.342;2023-05-10T04:45:28;16.03;;;6.87;;
5805;SDS011;2929;50.810;8.342;2023-05-10T04:47:55;10.53;;;8.13;;
5805;SDS011;2929;50.810;8.342;2023-05-10T04:50:22;11.13;;;7.03;;
5805;SDS011;2929;50.810;8.342;2023-05-10T04:52:51;8.60;;;6.40;;
5805;SDS011;2929;50.810;8.342;2023-05-10T04:55:17;10.17;;;7.47;;
5805;SDS011;2929;50.810;8.342;2023-05-10T04:57:45;16.27;;;8.30;;
5805;SDS011;2929;50.810;8.342;2023-05-10T05:00:12;13.70;;;7.43;;
5805;SDS011;2929;50.810;8.342;2023-05-10T05:02:41;11.50;;;7.30;;
5805;SDS011;2929;50.810;8.342;2023-05-10T05:05:10;11.00;;;6.40;;
5805;SDS011;2929;50.810;8.342;2023-05-10T05:07:37;7.43;;;5.50;;
5805;SDS011;2929;50.810;8.342;2023-05-10T05:10:06;10.00;;;6.80;;
5805;SDS011;2929;50.810;8.342;2023-05-10T05:12:34;9.30;;;6.03;;
5805;SDS011;2929;50.810;8.342;2023-05-10T05:15:01;17.70;;;5.03;;
5805;SDS011;2929;50.810;8.342;2023-05-10T05:17:29;5.57;;;4.97;;
5805;SDS011;2929;50.810;8.342;2023-05-10T05:19:57;5.73;;;4.50;;
5805;SDS011;2929;50.810;8.342;2023-05-10T05:22:24;4.83;;;4.20;;
5805;SDS011;2929;50.810;8.342;2023-05-10T05:24:53;5.10;;;3.80;;
5805;SDS011;2929;50.810;8.342;2023-05-10T05:27:21;4.27;;;3.83;;
5805;SDS011;2929;50.810;8.342;2023-05-10T05:29:49;3.57;;;2.90;;
5805;SDS011;2929;50.810;8.342;2023-05-10T05:32:16;4.70;;;4.27;;
5805;SDS011;2929;50.810;8.342;2023-05-10T05:34:44;12.50;;;5.47;;
5805;SDS011;2929;50.810;8.342;2023-05-10T05:37:12;7.40;;;5.13;;
5805;SDS011;2929;50.810;8.342;2023-05-10T05:39:40;6.77;;;4.47;;
5805;SDS011;2929;50.810;8.342;2023-05-10T05:42:07;11.07;;;6.67;;
5805;SDS011;2929;50.810;8.342;2023-05-10T05:44:36;9.00;;;5.00;;
5805;SDS011;2929;50.810;8.342;2023-05-10T05:47:03;7.90;;;5.30;;
5805;SDS011;2929;50.810;8.342;2023-05-10T05:49:30;8.47;;;6.33;;
5805;SDS011;2929;50.810;8.342;2023-05-10T05:51:58;6.43;;;4.37;;
5805;SDS011;2929;50.810;8.342;2023-05-10T05:54:25;6.00;;;5.20;;
5805;SDS011;2929;50.810;8.342;2023-05-10T05:56:53;6.20;;;4.70;;
5805;SDS011;2929;50.810;8.342;2023-05-10T05:59:20;12.57;;;5.90;;
5805;SDS011;2929;50.810;8.342;2023-05-10T06:01:49;6.33;;;4.60;;
5805;SDS011;2929;50.810;8.342;2023-05-10T06:04:16;6.87;;;5.23;;
5805;SDS011;2929;50.810;8.342;2023-05-10T06:06:43;6.70;;;5.30;;
5805;SDS011;2929;50.810;8.342;2023-05-10T06:09:11;5.20;;;4.03;;
5805;SDS011;2929;50.810;8.342;2023-05-10T06:11:38;9.00;;;4.20;;
5805;SDS011;2929;50.810;8.342;2023-05-10T06:14:05;6.30;;;5.70;;
5805;SDS011;2929;50.810;8.342;2023-05-10T06:16:33;6.20;;;4.10;;
5805;SDS011;2929;50.810;8.342;2023-05-10T06:19:01;8.07;;;4.70;;
5805;SDS011;2929;50.810;8.342;2023-05-10T06:21:29;5.70;;;3.67;;
5805;SDS011;2929;50.810;8.342;2023-05-10T06:23:56;4.03;;;2.33;;
5805;SDS011;2929;50.810;8.342;2023-05-10T06:26:23;4.80;;;2.80;;
5805;SDS011;2929;50.810;8.342;2023-05-10T06:28:50;2.53;;;2.33;;
5805;SDS011;2929;50.810;8.342;2023-05-10T06:31:17;2.00;;;1.60;;
5805;SDS011;2929;50.810;8.342;2023-05-10T06:33:44;3.43;;;1.93;;
5805;SDS011;2929;50.810;8.342;2023-05-10T06:36:12;3.57;;;2.10;;
5805;SDS011;2929;50.810;8.342;2023-05-10T06:38:39;1.70;;;1.60;;
5805;SDS011;2929;50.810;8.342;2023-05-10T06:41:06;2.20;;;2.10;;
5805;SDS011;2929;50.810;8.342;2023-05-10T06:43:34;5.23;;;2.23;;
5805;SDS011;2929;50.810;8.342;2023-05-10T06:46:02;2.23;;;1.90;;
5805;SDS011;2929;50.810;8.342;2023-05-10T06:48:29;3.77;;;2.47;;
5805;SDS011;2929;50.810;8.342;2023-05-10T06:50:56;7.10;;;2.77;;
5805;SDS011;2929;50.810;8.342;2023-05-10T06:53:24;7.33;;;2.97;;
5805;SDS011;2929;50.810;8.342;2023-05-10T06:55:51;3.53;;;2.80;;
5805;SDS011;2929;50.810;8.342;2023-05-10T06:58:18;3.10;;;2.53;;
5805;SDS011;2929;50.810;8.342;2023-05-10T07:00:45;3.93;;;2.80;;
5805;SDS011;2929;50.810;8.342;2023-05-10T07:03:12;3.40;;;2.03;;
5805;SDS011;2929;50.810;8.342;2023-05-10T07:05:39;5.17;;;3.10;;
5805;SDS011;2929;50.810;8.342;2023-05-10T07:08:06;6.27;;;3.20;;
5805;SDS011;2929;50.810;8.342;2023-05-10T07:10:35;4.73;;;3.37;;
5805;SDS011;2929;50.810;8.342;2023-05-10T07:13:02;4.67;;;3.10;;
5805;SDS011;2929;50.810;8.342;2023-05-10T07:15:29;5.20;;;3.03;;
5805;SDS011;2929;50.810;8.342;2023-05-10T07:17:56;5.20;;;3.37;;
5805;SDS011;2929;50.810;8.342;2023-05-10T07:20:23;4.73;;;3.10;;
5805;SDS011;2929;50.810;8.342;2023-05-10T07:22:50;3.53;;;2.90;;
5805;SDS011;2929;50.810;8.342;2023-05-10T07:25:17;7.13;;;3.30;;
5805;SDS011;2929;50.810;8.342;2023-05-10T07:27:45;3.47;;;3.17;;
5805;SDS011;2929;50.810;8.342;2023-05-10T07:30:13;5.13;;;2.93;;
5805;SDS011;2929;50.810;8.342;2023-05-10T07:32:41;5.80;;;3.40;;
5805;SDS011;2929;50.810;8.342;2023-05-10T07:35:08;4.10;;;3.70;;
5805;SDS011;2929;50.810;8.342;2023-05-10T07:37:35;8.43;;;4.17;;
5805;SDS011;2929;50.810;8.342;2023-05-10T07:40:02;7.33;;;3.20;;
5805;SDS011;2929;50.810;8.342;2023-05-10T07:42:29;5.20;;;3.10;;
5805;SDS011;2929;50.810;8.342;2023-05-10T07:44:58;5.13;;;3.57;;
5805;SDS011;2929;50.810;8.342;2023-05-10T07:47:25;4.10;;;3.13;;
5805;SDS011;2929;50.810;8.342;2023-05-10T07:49:52;3.37;;;3.07;;
5805;SDS011;2929;50.810;8.342;2023-05-10T07:52:19;4.90;;;3.37;;
5805;SDS011;2929;50.810;8.342;2023-05-10T07:54:46;6.83;;;3.23;;
5805;SDS011;2929;50.810;8.342;2023-05-10T07:57:13;3.90;;;2.93;;
5805;SDS011;2929;50.810;8.342;2023-05-10T07:59:42;4.70;;;3.27;;
5805;SDS011;2929;50.810;8.342;2023-05-10T08:02:12;7.70;;;3.87;;
5805;SDS011;2929;50.810;8.342;2023-05-10T08:04:39;4.50;;;3.30;;
5805;SDS011;2929;50.810;8.342;2023-05-10T08:07:06;4.90;;;3.20;;
5805;SDS011;2929;50.810;8.342;2023-05-10T08:09:33;6.00;;;4.40;;
5805;SDS011;2929;50.810;8.342;2023-05-10T08:12:00;8.87;;;4.10;;
5805;SDS011;2929;50.810;8.342;2023-05-10T08:14:28;8.30;;;3.80;;
5805;SDS011;2929;50.810;8.342;2023-05-10T08:16:55;5.20;;;4.07;;
5805;SDS011;2929;50.810;8.342;2023-05-10T08:19:24;6.87;;;3.93;;
5805;SDS011;2929;50.810;8.342;2023-05-10T08:21:50;9.60;;;4.10;;
5805;SDS011;2929;50.810;8.342;2023-05-10T08:24:18;6.10;;;4.77;;
5805;SDS011;2929;50.810;8.342;2023-05-10T08:26:45;5.73;;;4.13;;
5805;SDS011;2929;50.810;8.342;2023-05-10T08:29:12;6.00;;;4.30;;
5805;SDS011;2929;50.810;8.342;2023-05-10T08:31:39;8.90;;;4.10;;
5805;SDS011;2929;50.810;8.342;2023-05-10T08:34:07;9.63;;;3.80;;
5805;SDS011;2929;50.810;8.342;2023-05-10T08:36:35;4.27;;;3.70;;
5805;SDS011;2929;50.810;8.342;2023-05-10T08:39:02;7.40;;;3.80;;
5805;SDS011;2929;50.810;8.342;2023-05-10T08:41:29;5.23;;;3.50;;
5805;SDS011;2929;50.810;8.342;2023-05-10T08:43:58;4.07;;;3.53;;
5805;SDS011;2929;50.810;8.342;2023-05-10T08:46:29;7.70;;;3.50;;
5805;SDS011;2929;50.810;8.342;2023-05-10T08:49:00;8.53;;;4.67;;
5805;SDS011;2929;50.810;8.342;2023-05-10T08:51:30;5.50;;;4.50;;
5805;SDS011;2929;50.810;8.342;2023-05-10T08:54:03;8.80;;;6.43;;
5805;SDS011;2929;50.810;8.342;2023-05-10T08:56:30;8.07;;;5.27;;
5805;SDS011;2929;50.810;8.342;2023-05-10T08:58:57;7.50;;;5.90;;
5805;SDS011;2929;50.810;8.342;2023-05-10T09:01:24;8.50;;;5.33;;
5805;SDS011;2929;50.810;8.342;2023-05-10T09:03:53;5.60;;;4.03;;
5805;SDS011;2929;50.810;8.342;2023-05-10T09:06:20;5.40;;;4.90;;
5805;SDS011;2929;50.810;8.342;2023-05-10T09:08:47;5.30;;;4.60;;
5805;SDS011;2929;50.810;8.342;2023-05-10T09:11:15;8.27;;;4.53;;
5805;SDS011;2929;50.810;8.342;2023-05-10T09:13:43;5.60;;;4.27;;
5805;SDS011;2929;50.810;8.342;2023-05-10T09:16:11;5.70;;;4.70;;
5805;SDS011;2929;50.810;8.342;2023-05-10T09:18:38;8.97;;;4.80;;
5805;SDS011;2929;50.810;8.342;2023-05-10T09:21:05;6.60;;;5.17;;
5805;SDS011;2929;50.810;8.342;2023-05-10T09:23:32;6.20;;;4.97;;
5805;SDS011;2929;50.810;8.342;2023-05-10T09:26:02;7.27;;;4.90;;
5805;SDS011;2929;50.810;8.342;2023-05-10T09:28:32;7.67;;;6.30;;
5805;SDS011;2929;50.810;8.342;2023-05-10T09:31:00;10.30;;;5.60;;
5805;SDS011;2929;50.810;8.342;2023-05-10T09:33:27;10.90;;;8.07;;
5805;SDS011;2929;50.810;8.342;2023-05-10T09:35:54;14.50;;;9.63;;
5805;SDS011;2929;50.810;8.342;2023-05-10T09:38:21;13.77;;;9.87;;
5805;SDS011;2929;50.810;8.342;2023-05-10T09:40:51;20.50;;;10.60;;
5805;SDS011;2929;50.810;8.342;2023-05-10T09:43:20;12.87;;;9.77;;
5805;SDS011;2929;50.810;8.342;2023-05-10T09:45:49;18.60;;;9.97;;
5805;SDS011;2929;50.810;8.342;2023-05-10T09:48:15;13.50;;;9.90;;
5805;SDS011;2929;50.810;8.342;2023-05-10T09:50:42;13.33;;;9.80;;
5805;SDS011;2929;50.810;8.342;2023-05-10T09:53:09;22.13;;;9.77;;
5805;SDS011;2929;50.810;8.342;2023-05-10T09:55:42;12.20;;;9.20;;
5805;SDS011;2929;50.810;8.342;2023-05-10T09:58:11;15.17;;;9.17;;
5805;SDS011;2929;50.810;8.342;2023-05-10T10:00:40;13.67;;;8.03;;
5805;SDS011;2929;50.810;8.342;2023-05-10T10:03:13;13.00;;;9.00;;
5805;SDS011;2929;50.810;8.342;2023-05-10T10:05:41;15.70;;;9.40;;
5805;SDS011;2929;50.810;8.342;2023-05-10T10:08:09;13.50;;;8.93;;
5805;SDS011;2929;50.810;8.342;2023-05-10T10:10:37;11.83;;;8.17;;
5805;SDS011;2929;50.810;8.342;2023-05-10T10:13:06;9.80;;;6.77;;
5805;SDS011;2929;50.810;8.342;2023-05-10T10:15:34;14.43;;;8.37;;
5805;SDS011;2929;50.810;8.342;2023-05-10T10:18:01;10.10;;;8.20;;
5805;SDS011;2929;50.810;8.342;2023-05-10T10:20:30;11.50;;;7.10;;
5805;SDS011;2929;50.810;8.342;2023-05-10T10:22:57;12.37;;;8.40;;
5805;SDS011;2929;50.810;8.342;2023-05-10T10:25:24;12.07;;;9.00;;
5805;SDS011;2929;50.810;8.342;2023-05-10T10:27:58;12.70;;;8.33;;
5805;SDS011;2929;50.810;8.342;2023-05-10T10:30:40;11.83;;;8.50;;
5805;SDS011;2929;50.810;8.342;2023-05-10T10:35:59;14.53;;;9.00;;
5805;SDS011;2929;50.810;8.342;2023-05-10T10:38:35;13.33;;;9.00;;
5805;SDS011;2929;50.810;8.342;2023-05-10T10:41:08;17.70;;;9.80;;
5805;SDS011;2929;50.810;8.342;2023-05-10T10:43:36;19.00;;;12.10;;
5805;SDS011;2929;50.810;8.342;2023-05-10T10:46:10;16.73;;;9.23;;
5805;SDS011;2929;50.810;8.342;2023-05-10T10:48:47;13.77;;;9.80;;
5805;SDS011;2929;50.810;8.342;2023-05-10T10:51:16;13.97;;;9.60;;
5805;SDS011;2929;50.810;8.342;2023-05-10T10:53:43;12.60;;;8.83;;
5805;SDS011;2929;50.810;8.342;2023-05-10T10:56:11;16.80;;;9.77;;
5805;SDS011;2929;50.810;8.342;2023-05-10T10:58:40;11.23;;;8.50;;
5805;SDS011;2929;50.810;8.342;2023-05-10T11:01:11;10.30;;;7.90;;
5805;SDS011;2929;50.810;8.342;2023-05-10T11:03:39;15.97;;;9.20;;
5805;SDS011;2929;50.810;8.342;2023-05-10T11:06:07;11.93;;;8.00;;
5805;SDS011;2929;50.810;8.342;2023-05-10T11:08:40;9.07;;;6.90;;
5805;SDS011;2929;50.810;8.342;2023-05-10T11:11:09;11.90;;;6.33;;
5805;SDS011;2929;50.810;8.342;2023-05-10T11:13:40;8.23;;;6.57;;
5805;SDS011;2929;50.810;8.342;2023-05-10T11:16:12;9.70;;;6.80;;
5805;SDS011;2929;50.810;8.342;2023-05-10T11:18:53;8.47;;;5.43;;
5805;SDS011;2929;50.810;8.342;2023-05-10T11:21:23;6.87;;;5.40;;
5805;SDS011;2929;50.810;8.342;2023-05-10T11:23:52;6.10;;;5.20;;
5805;SDS011;2929;50.810;8.342;2023-05-10T11:26:22;7.60;;;5.67;;
5805;SDS011;2929;50.810;8.342;2023-05-10T11:28:51;7.77;;;5.33;;
5805;SDS011;2929;50.810;8.342;2023-05-10T11:31:20;7.30;;;4.80;;
5805;SDS011;2929;50.810;8.342;2023-05-10T11:33:50;5.13;;;4.03;;
5805;SDS011;2929;50.810;8.342;2023-05-10T11:36:19;6.20;;;4.90;;
5805;SDS011;2929;50.810;8.342;2023-05-10T11:38:47;6.67;;;5.10;;
5805;SDS011;2929;50.810;8.342;2023-05-10T11:41:16;6.93;;;4.70;;
5805;SDS011;2929;50.810;8.342;2023-05-10T11:43:47;3.73;;;3.23;;
5805;SDS011;2929;50.810;8.342;2023-05-10T11:46:17;5.37;;;4.00;;
5805;SDS011;2929;50.810;8.342;2023-05-10T11:48:45;5.47;;;4.10;;
5805;SDS011;2929;50.810;8.342;2023-05-10T11:51:15;2.83;;;2.60;;
5805;SDS011;2929;50.810;8.342;2023-05-10T11:53:54;2.40;;;2.20;;
5805;SDS011;2929;50.810;8.342;2023-05-10T11:56:23;1.60;;;1.40;;
5805;SDS011;2929;50.810;8.342;2023-05-10T11:58:55;1.40;;;1.30;;
5805;SDS011;2929;50.810;8.342;2023-05-10T12:01:24;1.40;;;1.30;;
5805;SDS011;2929;50.810;8.342;2023-05-10T12:03:55;1.40;;;1.30;;
5805;SDS011;2929;50.810;8.342;2023-05-10T12:06:25;1.30;;;1.20;;
5805;SDS011;2929;50.810;8.342;2023-05-10T12:08:53;3.60;;;1.40;;
5805;SDS011;2929;50.810;8.342;2023-05-10T12:11:25;1.43;;;1.33;;
5805;SDS011;2929;50.810;8.342;2023-05-10T12:13:54;1.07;;;1.07;;
5805;SDS011;2929;50.810;8.342;2023-05-10T12:16:23;2.40;;;1.30;;
5805;SDS011;2929;50.810;8.342;2023-05-10T12:18:52;1.00;;;1.00;;
5805;SDS011;2929;50.810;8.342;2023-05-10T12:21:25;1.10;;;1.10;;
5805;SDS011;2929;50.810;8.342;2023-05-10T12:23:59;1.20;;;1.10;;
5805;SDS011;2929;50.810;8.342;2023-05-10T12:26:30;1.10;;;1.10;;
5805;SDS011;2929;50.810;8.342;2023-05-10T12:29:11;1.20;;;1.10;;
5805;SDS011;2929;50.810;8.342;2023-05-10T12:31:49;2.23;;;1.10;;
5805;SDS011;2929;50.810;8.342;2023-05-10T12:34:26;1.00;;;0.90;;
5805;SDS011;2929;50.810;8.342;2023-05-10T12:36:57;3.03;;;1.10;;
5805;SDS011;2929;50.810;8.342;2023-05-10T12:39:24;1.50;;;0.97;;
5805;SDS011;2929;50.810;8.342;2023-05-10T12:41:54;0.80;;;0.80;;
5805;SDS011;2929;50.810;8.342;2023-05-10T12:44:20;0.90;;;0.90;;
5805;SDS011;2929;50.810;8.342;2023-05-10T12:46:47;0.90;;;0.80;;
5805;SDS011;2929;50.810;8.342;2023-05-10T12:49:14;0.90;;;0.90;;
5805;SDS011;2929;50.810;8.342;2023-05-10T12:51:41;1.30;;;1.20;;
5805;SDS011;2929;50.810;8.342;2023-05-10T12:54:08;1.43;;;0.80;;
5805;SDS011;2929;50.810;8.342;2023-05-10T12:56:35;1.00;;;1.00;;
5805;SDS011;2929;50.810;8.342;2023-05-10T12:59:04;1.13;;;1.00;;
5805;SDS011;2929;50.810;8.342;2023-05-10T13:01:31;2.10;;;0.90;;
5805;SDS011;2929;50.810;8.342;2023-05-10T13:03:58;0.90;;;0.90;;
5805;SDS011;2929;50.810;8.342;2023-05-10T13:06:26;1.20;;;1.20;;
5805;SDS011;2929;50.810;8.342;2023-05-10T13:08:53;1.00;;;1.00;;
5805;SDS011;2929;50.810;8.342;2023-05-10T13:11:20;1.40;;;1.30;;
5805;SDS011;2929;50.810;8.342;2023-05-10T13:13:47;1.40;;;1.30;;
5805;SDS011;2929;50.810;8.342;2023-05-10T13:16:15;1.57;;;1.30;;
5805;SDS011;2929;50.810;8.342;2023-05-10T13:18:42;1.67;;;1.17;;
5805;SDS011;2929;50.810;8.342;2023-05-10T13:21:09;2.00;;;1.80;;
5805;SDS011;2929;50.810;8.342;2023-05-10T13:27:32;2.23;;;1.93;;
5805;SDS011;2929;50.810;8.342;2023-05-10T13:29:59;1.70;;;1.60;;
5805;SDS011;2929;50.810;8.342;2023-05-10T13:32:27;2.10;;;1.77;;
5805;SDS011;2929;50.810;8.342;2023-05-10T13:34:54;2.20;;;1.60;;
5805;SDS011;2929;50.810;8.342;2023-05-10T13:37:21;1.47;;;1.37;;
5805;SDS011;2929;50.810;8.342;2023-05-10T13:39:48;2.17;;;2.03;;
5805;SDS011;2929;50.810;8.342;2023-05-10T13:42:15;1.40;;;1.30;;
5805;SDS011;2929;50.810;8.342;2023-05-10T13:44:43;1.73;;;1.50;;
5805;SDS011;2929;50.810;8.342;2023-05-10T13:47:10;2.13;;;1.70;;
5805;SDS011;2929;50.810;8.342;2023-05-10T13:49:38;3.57;;;1.90;;
5805;SDS011;2929;50.810;8.342;2023-05-10T13:52:05;1.83;;;1.73;;
5805;SDS011;2929;50.810;8.342;2023-05-10T13:54:33;1.90;;;1.80;;
5805;SDS011;2929;50.810;8.342;2023-05-10T13:57:07;1.77;;;1.63;;
5805;SDS011;2929;50.810;8.342;2023-05-10T14:02:33;1.30;;;1.20;;
5805;SDS011;2929;50.810;8.342;2023-05-10T14:05:01;2.53;;;1.73;;
5805;SDS011;2929;50.810;8.342;2023-05-10T14:07:29;2.40;;;1.97;;
5805;SDS011;2929;50.810;8.342;2023-05-10T14:09:56;2.20;;;1.70;;
5805;SDS011;2929;50.810;8.342;2023-05-10T14:12:23;3.47;;;1.80;;
5805;SDS011;2929;50.810;8.342;2023-05-10T14:14:50;2.07;;;1.97;;
5805;SDS011;2929;50.810;8.342;2023-05-10T14:17:17;2.30;;;2.10;;
5805;SDS011;2929;50.810;8.342;2023-05-10T14:19:44;2.63;;;2.43;;
5805;SDS011;2929;50.810;8.342;2023-05-10T14:22:12;2.60;;;2.40;;
5805;SDS011;2929;50.810;8.342;2023-05-10T14:24:40;4.90;;;2.17;;
5805;SDS011;2929;50.810;8.342;2023-05-10T14:27:08;3.90;;;2.80;;
5805;SDS011;2929;50.810;8.342;2023-05-10T14:29:35;2.67;;;2.40;;
5805;SDS011;2929;50.810;8.342;2023-05-10T14:32:02;3.23;;;2.00;;
5805;SDS011;2929;50.810;8.342;2023-05-10T14:34:30;3.20;;;1.97;;
5805;SDS011;2929;50.810;8.342;2023-05-10T14:36:56;2.67;;;2.47;;
5805;SDS011;2929;50.810;8.342;2023-05-10T14:39:25;4.73;;;2.03;;
5805;SDS011;2929;50.810;8.342;2023-05-10T14:41:54;3.00;;;2.17;;
5805;SDS011;2929;50.810;8.342;2023-05-10T14:44:21;4.20;;;2.27;;
5805;SDS011;2929;50.810;8.342;2023-05-10T14:46:48;2.60;;;2.30;;
5805;SDS011;2929;50.810;8.342;2023-05-10T14:49:15;2.57;;;2.33;;
5805;SDS011;2929;50.810;8.342;2023-05-10T14:51:42;2.20;;;1.90;;
5805;SDS011;2929;50.810;8.342;2023-05-10T14:54:10;3.47;;;2.13;;
5805;SDS011;2929;50.810;8.342;2023-05-10T14:56:38;4.40;;;2.10;;
5805;SDS011;2929;50.810;8.342;2023-05-10T14:59:06;2.30;;;2.10;;
5805;SDS011;2929;50.810;8.342;2023-05-10T15:01:33;2.97;;;2.17;;
5805;SDS011;2929;50.810;8.342;2023-05-10T15:04:02;3.97;;;2.30;;
5805;SDS011;2929;50.810;8.342;2023-05-10T15:06:32;3.23;;;1.90;;
5805;SDS011;2929;50.810;8.342;2023-05-10T15:09:03;2.50;;;2.30;;
5805;SDS011;2929;50.810;8.342;2023-05-10T15:11:30;2.40;;;2.20;;
5805;SDS011;2929;50.810;8.342;2023-05-10T15:13:59;2.30;;;2.10;;
5805;SDS011;2929;50.810;8.342;2023-05-10T15:16:27;5.80;;;3.03;;
5805;SDS011;2929;50.810;8.342;2023-05-10T15:18:54;3.63;;;3.10;;
5805;SDS011;2929;50.810;8.342;2023-05-10T15:21:21;4.60;;;2.67;;
5805;SDS011;2929;50.810;8.342;2023-05-10T15:23:48;7.10;;;3.20;;
5805;SDS011;2929;50.810;8.342;2023-05-10T15:26:15;3.73;;;3.20;;
5805;SDS011;2929;50.810;8.342;2023-05-10T15:28:42;5.80;;;3.60;;
5805;SDS011;2929;50.810;8.342;2023-05-10T15:31:10;7.60;;;3.47;;
5805;SDS011;2929;50.810;8.342;2023-05-10T15:33:37;4.93;;;3.20;;
5805;SDS011;2929;50.810;8.342;2023-05-10T15:36:04;6.20;;;3.70;;
5805;SDS011;2929;50.810;8.342;2023-05-10T15:38:32;5.20;;;3.67;;
5805;SDS011;2929;50.810;8.342;2023-05-10T15:40:59;6.40;;;3.70;;
5805;SDS011;2929;50.810;8.342;2023-05-10T15:43:26;9.73;;;6.10;;
5805;SDS011;2929;50.810;8.342;2023-05-10T15:45:53;5.30;;;4.50;;
5805;SDS011;2929;50.810;8.342;2023-05-10T15:48:22;7.33;;;3.27;;
5805;SDS011;2929;50.810;8.342;2023-05-10T15:50:49;5.53;;;4.17;;
5805;SDS011;2929;50.810;8.342;2023-05-10T15:53:16;6.73;;;4.40;;
5805;SDS011;2929;50.810;8.342;2023-05-10T15:55:42;5.80;;;3.00;;